Detalii statie VIITORUL MAILAT [00001CF8]

Toti senzorii

Date Temperatura solului [C]Precipitatii [mm]Voltaj baterie [mV]HC Air temperature [C]HC Relative humidity [%]Punctul de roua [C]
medieminmaxsumaultimamedieminmaxmediemediemin
2020-01-25 15:00:00 1 0.9 1.1 0 7118 4.97 4.47 5.4 100 4.9 4.4
2020-01-25 16:00:00 1.1 1 1.3 0 7060 5.15 4.96 5.46 100 5.1 4.9
2020-01-25 17:00:00 1 1 1.3 0 7020 4.91 4.54 5.28 100 4.8 4.5
2020-01-25 18:00:00 1.1 0.9 1.4 0 7010 3.14 1.9 4.41 100 3.1 1.9
2020-01-25 19:00:00 1.1 1 1.4 0 7000 1.54 1.19 2.01 100 1.5 1.1
2020-01-25 20:00:00 1.2 1.1 1.4 0 6982 0.51 -0.39 1.19 100 0.5 -0.2
2020-01-25 21:00:00 1.1 1 1.3 0 6972 -0.85 -1.26 -0.5 100 -0.7 -1.1
2020-01-25 22:00:00 1.2 1.2 1.3 0 6962 -1.56 -1.8 -1.37 100 -1.4 -1.7
2020-01-25 23:00:00 1.3 1.2 1.5 0 6962 -1.16 -1.55 -0.96 100 -1 -1.4
2020-01-26 00:00:00 1.2 1.1 1.3 0 6952 -1.47 -1.78 -1.15 100 -1.3 -1.6
2020-01-26 01:00:00 1.3 1.1 1.5 0 6942 -1.42 -1.78 -0.93 100 -1.2 -1.6
2020-01-26 02:00:00 1.3 1 1.5 0 6932 -0.83 -1.04 -0.73 100 -0.6 -0.9
2020-01-26 03:00:00 1.3 1.3 1.5 0 6932 -1.4 -1.64 -1.06 100 -1.2 -1.5
2020-01-26 04:00:00 1.3 1.1 1.5 0 6932 -1.53 -1.63 -1.45 100 -1.3 -1.5
2020-01-26 05:00:00 1.3 1.1 1.5 0 6932 -1.57 -1.65 -1.49 100 -1.4 -1.5
2020-01-26 06:00:00 1.2 1.1 1.5 0 6922 -1.23 -1.53 -1.02 100 -1.1 -1.4
2020-01-26 07:00:00 1.2 1.2 1.5 0 6922 -1.04 -1.2 -0.91 100 -0.9 -1.1
2020-01-26 08:00:00 1.2 1.1 1.4 0 6914 -1.2 -1.68 -1.04 100 -1 -1.5
2020-01-26 09:00:00 1.2 1.2 1.5 0 6914 -0.91 -1.29 -0.61 100 -0.7 -1.1
2020-01-26 10:00:00 1.2 1.1 1.4 0 6972 0.06 -0.68 0.85 100 0.1 -0.5
2020-01-26 11:00:00 1.1 1.1 1.4 0 7274 2.89 1.05 5.07 100 2.8 1
2020-01-26 12:00:00 1.2 1.1 1.3 0 7098 5.59 4.66 6.1 100 5.5 4.6
2020-01-26 13:00:00 1.2 1.1 1.4 0 7216 6.64 5.84 8.81 100 6.6 5.8
2020-01-26 14:00:00 1.3 1.2 1.6 0 7088 9.57 9.28 9.99 100 9.5 9.2
2020-01-26 15:00:00 1.3 1.2 1.6 0 7098 9.8 9.37 10.75 100 9.7 9.3
2020-01-26 16:00:00 1.5 1.4 1.7 0 7040 8.45 7.41 9.83 100 8.4 7.4
2020-01-26 17:00:00 1.6 1.4 1.8 0 7000 6.42 5.56 7.28 100 6.3 5.5
2020-01-26 18:00:00 1.7 1.6 1.9 0 6992 4.5 3.87 5.39 100 4.4 3.8
2020-01-26 19:00:00 1.8 1.6 2 0 6982 2.98 1.99 3.77 100 2.9 1.9
2020-01-26 20:00:00 2 1.8 2.2 0 6972 1.2 0.62 1.88 100 1.1 0.6
2020-01-26 21:00:00 2.1 2.1 2.2 0 6972 -0.21 -0.75 0.56 100 -0.1 -0.6
2020-01-26 22:00:00 2.1 1.9 2.3 0 6962 -0.6 -0.98 -0.32 100 -0.4 -0.8
2020-01-26 23:00:00 2.1 1.9 2.3 0 6952 -0.29 -0.69 0.1 100 -0.1 -0.5
2020-01-27 00:00:00 2.1 2 2.3 0 6932 -1.29 -1.59 -0.52 100 -1.1 -1.4
2020-01-27 01:00:00 2.2 2 2.3 0 6932 -1.21 -1.64 -0.87 100 -1 -1.5
2020-01-27 02:00:00 2.1 1.9 2.3 0 6922 -0.39 -0.82 -0.11 100 -0.2 -0.7
2020-01-27 03:00:00 2 1.9 2.2 0 6932 0.04 -0.03 0.11 100 0 0
2020-01-27 04:00:00 2 1.8 2.2 0 6922 0.01 -0.06 0.07 100 0 0
2020-01-27 05:00:00 2.1 2.1 2.2 0.2 6914 0.03 -0.03 0.16 100 0 0
2020-01-27 06:00:00 2 1.9 2.2 1 6914 0.13 0.06 0.18 100 0 0
2020-01-27 07:00:00 2 1.8 2.2 2.2 6914 -0.02 -0.07 0.09 100 0 0
2020-01-27 08:00:00 2 1.8 2.3 4.2 6904 0.13 -0.05 0.24 100 0.1 0
2020-01-27 09:00:00 2 1.8 2.2 2.2 6904 0.33 0.26 0.42 100 0.2 0.2
2020-01-27 10:00:00 1.9 1.8 2.2 1.6 6904 0.42 0.36 0.49 100 0.3 0.3
2020-01-27 11:00:00 2 1.8 2.1 1.8 6922 0.72 0.51 0.83 100 0.6 0.5
2020-01-27 12:00:00 1.9 1.7 2 1.6 6914 1 0.85 1.12 100 0.9 0.8
2020-01-27 13:00:00 1.9 1.8 2.1 1.6 6922 1.2 1.1 1.35 100 1.1 1.1
2020-01-27 14:00:00 2 2 2.1 1.4 6932 1.57 1.39 1.76 100 1.5 1.3